« Back
NWS Peachtree City, Ga » Text Product » ATL Terminal Aerodrome Forecast


Printer-friendly Version
Current Version              Previous Versions:   1  2  3  4  5  6  7  8  9  

Terminal Aerodrome Forecast

738
FTUS42 KFFC 051120
TAFATL
TAF
KATL 051120Z 0512/0618 25004KT P6SM BKN015 BKN070
      TEMPO 0512/0513 BKN008
     FM051300 25005KT P6SM -RA BKN025
     FM051700 24009G14KT P6SM VCSH BKN040
      TEMPO 0517/0521 VRB15G25KT 3SM TSRA BKN025CB
     FM060200 25005KT P6SM BKN040
     FM061000 25004KT 6SM BR BKN012 BKN100
     FM061400 28005KT P6SM BKN030=

USA.gov is the U.S. government's official web portal to all federal, state and local government web resources and services.